Time;durP1;ratioP1;P1;durP2;ratioP2;P2;SDS_P1;SDS_P2;PMS_P1;PMS_P2;Temp;Humidity;BMP_temperature;BMP_pressure;BME280_temperature;BME280_humidity;BME280_pressure;Samples;Min_cycle;Max_cycle;Signal;HPM_P1;HPM_P2
2023/10/02 00:01:11;;;;;;;27.10;9.10;;;;;;;16.21;100.00;101960.59;7371234;19;20403;-53
2023/10/02 00:03:42;;;;;;;15.43;7.93;;;;;;;16.13;100.00;101956.78;7392384;19;20384;-48
2023/10/02 00:06:16;;;;;;;19.10;8.73;;;;;;;16.15;100.00;101955.16;7371945;19;20482;-51
2023/10/02 00:08:49;;;;;;;20.07;7.83;;;;;;;16.14;100.00;101951.66;7394686;19;20410;-55
2023/10/02 00:17:03;;;;;;;19.47;9.13;;;;;;;16.09;100.00;101934.97;7393323;19;20808;-49
2023/10/02 00:19:38;;;;;;;26.03;10.13;;;;;;;16.03;100.00;101919.13;7370079;19;20405;-51
2023/10/02 00:22:34;;;;;;;21.93;10.27;;;;;;;16.02;100.00;101918.25;7392083;19;20466;-52
2023/10/02 00:25:01;;;;;;;19.03;8.93;;;;;;;16.00;100.00;101903.41;7369901;19;20403;-52
2023/10/02 00:27:32;;;;;;;22.73;8.70;;;;;;;16.01;100.00;101906.03;7391193;19;20465;-49
2023/10/02 00:30:01;;;;;;;21.47;9.20;;;;;;;15.98;100.00;101895.53;7370396;19;20427;-49
2023/10/02 00:32:34;;;;;;;26.00;10.23;;;;;;;15.97;100.00;101885.94;7396977;19;20403;-53
2023/10/02 00:35:05;;;;;;;19.17;8.43;;;;;;;15.97;100.00;101888.56;7371589;19;20427;-52
2023/10/02 00:37:47;;;;;;;22.53;8.37;;;;;;;15.95;100.00;101886.72;7396986;19;20463;-50
2023/10/02 00:40:23;;;;;;;20.10;9.30;;;;;;;15.96;100.00;101876.38;7370252;19;20835;-50
2023/10/02 00:42:54;;;;;;;19.97;9.00;;;;;;;15.95;100.00;101874.63;7392066;19;20393;-50
2023/10/02 00:45:25;;;;;;;22.53;9.63;;;;;;;15.96;100.00;101875.47;7370485;19;20411;-53
2023/10/02 00:48:24;;;;;;;22.23;9.53;;;;;;;15.92;100.00;101877.09;7397924;19;20396;-54
2023/10/02 00:50:49;;;;;;;21.97;9.03;;;;;;;15.91;100.00;101878.75;7372502;19;20511;-52
2023/10/02 00:53:28;;;;;;;19.10;8.07;;;;;;;15.91;100.00;101880.50;7391445;19;20400;-52
2023/10/02 00:56:01;;;;;;;17.90;8.50;;;;;;;15.92;100.00;101869.28;7368932;19;20478;-51
2023/10/02 00:58:34;;;;;;;25.67;8.97;;;;;;;15.88;100.00;101864.75;7390309;19;20483;-51
2023/10/02 01:01:05;;;;;;;18.60;9.07;;;;;;;15.87;100.00;101860.38;7368926;19;20449;-51
2023/10/02 01:04:07;;;;;;;22.97;9.30;;;;;;;15.88;100.00;101862.13;7394911;19;20403;-51
2023/10/02 01:06:27;;;;;;;32.07;9.73;;;;;;;15.85;100.00;101859.44;7373412;19;20439;-54
2023/10/02 01:08:59;;;;;;;22.20;9.90;;;;;;;15.84;100.00;101852.47;7373222;19;20837;-54
2023/10/02 01:11:30;;;;;;;24.60;9.60;;;;;;;15.83;100.00;101853.31;7389808;19;20398;-53
2023/10/02 01:13:59;;;;;;;25.20;11.40;;;;;;;15.85;100.00;101852.50;7370212;19;20451;-49
2023/10/02 01:16:30;;;;;;;20.50;8.80;;;;;;;15.83;100.00;101840.28;7391112;19;21180;-50
2023/10/02 01:19:06;;;;;;;43.63;10.67;;;;;;;15.82;100.00;101834.19;7368985;19;20463;-52
2023/10/02 01:21:36;;;;;;;23.10;9.07;;;;;;;15.80;100.00;101828.91;7391016;19;20407;-53
2023/10/02 01:24:16;;;;;;;27.80;10.80;;;;;;;15.79;100.00;101826.25;7370643;19;20389;-49
2023/10/02 01:26:50;;;;;;;23.50;9.17;;;;;;;15.78;100.00;101835.78;7393871;19;20394;-51
2023/10/02 01:29:22;;;;;;;26.97;10.57;;;;;;;15.79;100.00;101826.25;7368858;19;20406;-51
2023/10/02 01:31:53;;;;;;;21.20;9.33;;;;;;;15.77;100.00;101823.63;7393698;19;20968;-52
2023/10/02 01:37:32;;;;;;;21.27;9.30;;;;;;;15.77;100.00;101822.72;7389693;19;20478;-53
2023/10/02 01:42:43;;;;;;;20.63;10.33;;;;;;;15.76;100.00;101821.84;7395875;19;20585;-51
2023/10/02 01:45:16;;;;;;;23.87;10.93;;;;;;;15.78;100.00;101820.19;7367516;19;21037;-53
2023/10/02 01:47:45;;;;;;;22.93;9.97;;;;;;;15.79;100.00;101821.94;7389921;19;20927;-50
2023/10/02 01:50:16;;;;;;;26.63;11.20;;;;;;;15.77;100.00;101822.72;7368276;19;21149;-51
2023/10/02 01:52:46;;;;;;;27.43;10.60;;;;;;;15.76;100.00;101815.75;7390137;19;20459;-53
2023/10/02 01:55:29;;;;;;;27.00;11.50;;;;;;;15.75;100.00;101814.84;7362856;19;20433;-50
2023/10/02 01:58:16;;;;;;;20.93;11.40;;;;;;;15.74;100.00;101826.09;7392617;19;20439;-53
2023/10/02 02:00:47;;;;;;;22.77;9.53;;;;;;;15.72;100.00;101825.16;7371020;19;20431;-51
2023/10/02 02:03:17;;;;;;;25.77;11.53;;;;;;;15.74;100.00;101817.41;7394581;19;20414;-53
2023/10/02 02:05:49;;;;;;;21.93;11.53;;;;;;;15.73;100.00;101821.72;7370306;19;20978;-51
2023/10/02 02:08:25;;;;;;;20.07;11.27;;;;;;;15.73;100.00;101821.72;7392891;19;20411;-50
2023/10/02 02:11:14;;;;;;;25.40;11.37;;;;;;;15.73;100.00;101823.41;7370682;19;20506;-54
2023/10/02 02:13:47;;;;;;;27.20;12.13;;;;;;;15.71;100.00;101818.19;7391881;19;20673;-53
2023/10/02 02:16:21;;;;;;;24.13;10.50;;;;;;;15.70;100.00;101816.41;7371334;19;20523;-51
2023/10/02 02:18:53;;;;;;;27.03;11.37;;;;;;;15.73;100.00;101820.81;7370968;19;20442;-49
2023/10/02 02:21:27;;;;;;;22.50;9.40;;;;;;;15.69;100.00;101814.63;7391070;19;20768;-50
2023/10/02 02:24:07;;;;;;;28.57;12.23;;;;;;;15.70;100.00;101816.41;7370709;19;20479;-54
2023/10/02 02:26:40;;;;;;;42.63;17.90;;;;;;;15.66;100.00;101810.19;7387633;19;20418;-50
2023/10/02 02:29:23;;;;;;;23.97;11.30;;;;;;;15.67;100.00;101808.47;7369527;19;20395;-52
2023/10/02 02:31:56;;;;;;;22.53;10.93;;;;;;;15.67;100.00;101811.09;7391752;19;20773;-52
2023/10/02 02:34:26;;;;;;;26.70;13.57;;;;;;;15.64;100.00;101811.84;7369726;19;20938;-54
2023/10/02 02:36:57;;;;;;;23.30;10.83;;;;;;;15.64;100.00;101805.78;7393352;19;20405;-54
2023/10/02 02:39:27;;;;;;;22.03;10.30;;;;;;;15.64;100.00;101808.38;7368757;19;20423;-51
2023/10/02 02:42:18;;;;;;;26.90;12.17;;;;;;;15.60;100.00;101804.78;7392565;19;20398;-50
2023/10/02 02:44:49;;;;;;;23.07;10.17;;;;;;;15.59;100.00;101792.56;7369419;19;20796;-55
2023/10/02 02:47:18;;;;;;;26.57;12.00;;;;;;;15.60;100.00;101796.06;7389693;19;20417;-51
2023/10/02 02:49:53;;;;;;;29.33;12.20;;;;;;;15.58;100.00;101792.53;7367056;19;20447;-53
2023/10/02 02:52:24;;;;;;;23.50;10.90;;;;;;;15.57;100.00;101794.25;7396538;19;20395;-52
2023/10/02 02:55:04;;;;;;;26.30;11.83;;;;;;;15.57;100.00;101788.13;7372558;19;20477;-52
2023/10/02 02:57:39;;;;;;;31.03;12.10;;;;;;;15.57;100.00;101795.94;7393154;19;20479;-53
2023/10/02 03:02:54;;;;;;;25.47;11.80;;;;;;;15.55;100.00;101795.00;7398368;19;20417;-51
2023/10/02 03:05:37;;;;;;;22.80;10.43;;;;;;;15.52;100.00;101788.88;7372705;19;20439;-52
2023/10/02 03:08:08;;;;;;;27.57;10.93;;;;;;;15.51;100.00;101802.72;7398717;19;20445;-53
2023/10/02 03:10:40;;;;;;;19.40;10.10;;;;;;;15.51;100.00;101800.13;7372280;19;20447;-49
2023/10/02 03:13:18;;;;;;;26.77;10.80;;;;;;;15.50;100.00;101800.03;7396506;19;20956;-53
2023/10/02 03:15:50;;;;;;;28.00;11.60;;;;;;;15.48;100.00;101804.31;7371232;19;20415;-51
2023/10/02 03:18:30;;;;;;;27.63;10.47;;;;;;;15.50;100.00;101802.66;7394410;19;20423;-52
2023/10/02 03:21:13;;;;;;;27.03;10.60;;;;;;;15.48;100.00;101805.19;7370658;19;20442;-52
2023/10/02 03:23:44;;;;;;;28.27;10.77;;;;;;;15.49;100.00;101808.69;7397943;19;20407;-54
2023/10/02 03:26:26;;;;;;;23.00;10.53;;;;;;;15.49;100.00;101806.94;7373181;19;20467;-53
2023/10/02 03:29:03;;;;;;;33.37;11.80;;;;;;;15.49;100.00;101809.56;7372033;19;20432;-53
2023/10/02 03:31:43;;;;;;;23.97;10.33;;;;;;;15.45;100.00;101804.19;7398204;19;20399;-52
2023/10/02 03:36:59;;;;;;;28.90;13.07;;;;;;;15.45;100.00;101798.97;7392244;19;20963;-52
2023/10/02 03:42:21;;;;;;;21.97;10.50;;;;;;;15.45;100.00;101810.28;7397875;19;20406;-53
2023/10/02 03:44:56;;;;;;;26.13;11.23;;;;;;;15.47;100.00;101803.41;7373204;19;20455;-49
2023/10/02 03:47:30;;;;;;;28.50;11.40;;;;;;;15.44;100.00;101798.06;7397857;19;20406;-52
2023/10/02 03:50:04;;;;;;;25.30;10.67;;;;;;;15.43;100.00;101800.66;7372157;19;20942;-51
2023/10/02 03:52:36;;;;;;;24.30;11.10;;;;;;;15.40;100.00;101798.81;7392512;19;20943;-51
2023/10/02 03:55:17;;;;;;;21.00;10.10;;;;;;;15.41;100.00;101794.47;7371366;19;20403;-55
2023/10/02 03:57:52;;;;;;;22.90;10.30;;;;;;;15.37;100.00;101794.38;7395613;19;20484;-52
2023/10/02 04:00:27;;;;;;;25.83;11.10;;;;;;;15.38;100.00;101795.25;7370877;19;20427;-54
2023/10/02 04:02:59;;;;;;;17.77;9.13;;;;;;;15.33;100.00;101795.06;7393196;19;20466;-51
2023/10/02 04:05:42;;;;;;;25.47;10.67;;;;;;;15.33;100.00;101783.81;7371150;19;20421;-49
2023/10/02 04:08:36;;;;;;;21.20;10.23;;;;;;;15.27;100.00;101789.63;7392919;19;20939;-53
2023/10/02 04:11:09;;;;;;;24.70;10.50;;;;;;;15.24;100.00;101790.41;7370929;19;20432;-53
2023/10/02 04:13:39;;;;;;;19.97;10.43;;;;;;;15.22;100.00;101786.88;7395964;19;20403;-50
2023/10/02 04:19:02;;;;;;;28.80;11.37;;;;;;;15.17;100.00;101787.53;7371846;19;20479;-53
2023/10/02 04:21:33;;;;;;;28.87;11.37;;;;;;;15.15;100.00;101784.84;7390822;19;20387;-55
2023/10/02 04:24:09;;;;;;;26.20;10.60;;;;;;;15.12;100.00;101775.22;7371545;19;20724;-50
2023/10/02 04:26:36;;;;;;;23.20;10.73;;;;;;;15.10;100.00;101781.19;7391382;19;20762;-51
2023/10/02 04:29:26;;;;;;;28.90;11.00;;;;;;;15.05;100.00;101778.41;7371583;19;20415;-55
2023/10/02 04:32:12;;;;;;;21.73;10.77;;;;;;;15.04;100.00;101775.75;7391388;19;20396;-55
2023/10/02 04:34:46;;;;;;;26.63;11.70;;;;;;;15.06;100.00;101774.97;7371592;19;20403;-54
2023/10/02 04:37:23;;;;;;;25.00;11.10;;;;;;;15.02;100.00;101765.28;7393631;19;20388;-51
2023/10/02 04:40:13;;;;;;;25.30;10.07;;;;;;;15.01;100.00;101770.44;7369768;19;20479;-50
2023/10/02 04:45:25;;;;;;;26.97;11.10;;;;;;;15.01;100.00;101760.91;7369396;19;21014;-55
2023/10/02 04:47:58;;;;;;;28.07;10.83;;;;;;;15.02;100.00;101762.69;7392039;19;20384;-51
2023/10/02 04:50:39;;;;;;;22.70;10.47;;;;;;;15.04;100.00;101760.16;7369407;19;20801;-54
2023/10/02 04:53:19;;;;;;;30.87;12.07;;;;;;;15.06;100.00;101763.69;7392424;19;20828;-52
2023/10/02 04:55:57;;;;;;;28.07;12.20;;;;;;;15.08;100.00;101764.66;7369058;19;20399;-51
2023/10/02 04:58:28;;;;;;;27.73;11.83;;;;;;;15.10;100.00;101770.78;7391281;19;20391;-52
2023/10/02 05:03:49;;;;;;;23.53;10.67;;;;;;;15.11;100.00;101772.56;7395016;19;20411;-54
2023/10/02 05:06:16;;;;;;;22.10;10.70;;;;;;;15.11;100.00;101767.34;7370430;19;20423;-49
2023/10/02 05:11:46;;;;;;;24.00;10.70;;;;;;;15.14;100.00;101769.19;7370237;19;20867;-53
2023/10/02 05:14:14;;;;;;;30.37;11.40;;;;;;;15.17;100.00;101762.41;7368796;19;20472;-55
2023/10/02 05:16:46;;;;;;;22.03;10.50;;;;;;;15.19;100.00;101771.16;7393885;19;20407;-50
2023/10/02 05:19:15;;;;;;;24.83;10.90;;;;;;;15.23;100.00;101775.63;7370896;19;20407;-56
2023/10/02 05:21:49;;;;;;;27.70;11.57;;;;;;;15.31;100.00;101780.25;7389159;19;20928;-52
2023/10/02 05:24:18;;;;;;;21.77;10.40;;;;;;;15.31;100.00;101785.44;7367880;19;20391;-53
2023/10/02 05:26:49;;;;;;;26.50;10.80;;;;;;;15.33;100.00;101784.69;7389737;19;20396;-53
2023/10/02 05:29:36;;;;;;;20.53;9.97;;;;;;;15.34;100.00;101794.25;7372684;19;20398;-53
2023/10/02 05:32:19;;;;;;;26.60;10.77;;;;;;;15.37;100.00;101788.28;7389592;19;20400;-53
2023/10/02 05:35:04;;;;;;;23.07;10.13;;;;;;;15.39;100.00;101789.25;7368939;19;20423;-51
2023/10/02 05:37:39;;;;;;;30.77;11.43;;;;;;;15.43;100.00;101804.13;7390737;19;20939;-54
2023/10/02 05:43:17;;;;;;;26.50;10.50;;;;;;;15.43;100.00;101811.91;7389520;19;20407;-55
2023/10/02 05:45:52;;;;;;;22.03;9.90;;;;;;;15.47;100.00;101828.53;7367339;19;21076;-53
2023/10/02 05:48:37;;;;;;;26.30;11.47;;;;;;;15.43;100.00;101840.53;7390288;19;20951;-54
2023/10/02 05:51:12;;;;;;;30.00;11.60;;;;;;;15.44;100.00;101834.47;7368633;19;20434;-53
2023/10/02 05:53:53;;;;;;;26.17;11.17;;;;;;;15.42;100.00;101840.47;7391657;19;20383;-54
2023/10/02 05:56:25;;;;;;;21.70;9.90;;;;;;;15.43;100.00;101827.50;7368540;19;20871;-52
2023/10/02 05:58:55;;;;;;;27.57;10.40;;;;;;;15.44;100.00;101834.47;7367806;19;20406;-50
2023/10/02 06:01:26;;;;;;;25.53;11.13;;;;;;;15.47;100.00;101841.53;7388055;19;20395;-54
2023/10/02 06:04:01;;;;;;;23.67;9.83;;;;;;;15.46;100.00;101830.25;7366760;19;20384;-52
2023/10/02 06:06:39;;;;;;;24.40;10.80;;;;;;;15.48;100.00;101836.38;7388074;19;20388;-54
2023/10/02 06:09:16;;;;;;;21.70;9.37;;;;;;;15.48;100.00;101840.72;7367698;19;20396;-51
2023/10/02 06:14:28;;;;;;;25.97;11.70;;;;;;;15.49;100.00;101835.56;7365237;19;20387;-54
2023/10/02 06:16:58;;;;;;;20.97;9.87;;;;;;;15.53;100.00;101827.06;7388282;19;20399;-51
2023/10/02 06:19:42;;;;;;;21.07;9.60;;;;;;;15.56;100.00;101844.50;7368136;19;20425;-52
2023/10/02 06:22:19;;;;;;;24.67;10.60;;;;;;;15.59;100.00;101843.72;7389441;19;20391;-52
2023/10/02 06:24:49;;;;;;;24.67;9.83;;;;;;;15.59;100.00;101844.59;7367868;19;20489;-56
2023/10/02 06:27:22;;;;;;;23.80;10.00;;;;;;;15.60;100.00;101846.41;7394785;19;20387;-53
2023/10/02 06:29:52;;;;;;;33.77;10.87;;;;;;;15.64;100.00;101852.59;7373423;19;20759;-54
2023/10/02 06:32:23;;;;;;;20.60;9.80;;;;;;;15.64;100.00;101850.88;7397192;19;20395;-54
2023/10/02 06:34:57;;;;;;;24.37;10.00;;;;;;;15.67;100.00;101857.91;7374478;19;20510;-52
2023/10/02 06:37:35;;;;;;;21.00;9.37;;;;;;;15.68;100.00;101851.88;7394783;19;20423;-54
2023/10/02 06:40:13;;;;;;;24.50;9.93;;;;;;;15.71;100.00;101856.31;7373326;19;20422;-51
2023/10/02 06:42:48;;;;;;;21.20;10.17;;;;;;;15.72;100.00;101851.16;7395619;19;20389;-50
2023/10/02 06:45:20;;;;;;;25.60;10.30;;;;;;;15.73;100.00;101855.53;7373303;19;20394;-55
2023/10/02 06:47:50;;;;;;;22.53;9.17;;;;;;;15.75;100.00;101866.88;7394871;19;20960;-53
2023/10/02 06:50:31;;;;;;;23.50;9.90;;;;;;;15.81;100.00;101861.03;7374053;19;20416;-54
2023/10/02 06:53:03;;;;;;;24.37;9.87;;;;;;;15.84;100.00;101865.47;7394824;19;20416;-53
2023/10/02 06:55:34;;;;;;;21.47;9.93;;;;;;;15.91;100.00;101865.75;7373188;19;20443;-52
2023/10/02 06:58:07;;;;;;;21.23;9.23;;;;;;;15.94;100.00;101872.81;7394255;19;20387;-53
2023/10/02 07:00:54;;;;;;;22.93;9.10;;;;;;;15.99;100.00;101875.59;7372193;19;20403;-52
2023/10/02 07:03:24;;;;;;;25.23;9.80;;;;;;;16.03;100.00;101877.47;7394735;19;20475;-50
2023/10/02 07:05:54;;;;;;;26.13;10.43;;;;;;;16.08;100.00;101880.25;7375387;19;20451;-51
2023/10/02 07:08:30;;;;;;;19.77;9.73;;;;;;;16.12;100.00;101889.94;7400059;19;20388;-50
2023/10/02 07:11:01;;;;;;;23.23;9.73;;;;;;;16.21;100.00;101903.31;7373627;19;20463;-53
2023/10/02 07:13:31;;;;;;;32.03;10.80;;;;;;;16.29;100.00;101917.50;7397800;19;20384;-53
2023/10/02 07:16:05;;;;;;;20.97;10.10;;;;;;;16.39;100.00;101925.63;7368419;19;20430;-52
2023/10/02 07:18:38;;;;;;;20.60;10.60;;;;;;;16.42;100.00;101923.16;7400222;19;20403;-51
2023/10/02 07:21:09;;;;;;;23.40;9.80;;;;;;;16.48;100.00;101936.41;7371039;19;20415;-55
2023/10/02 07:23:44;;;;;;;30.63;12.40;;;;;;;16.53;100.00;101940.06;7396454;19;20945;-51
2023/10/02 07:26:16;;;;;;;20.67;9.27;;;;;;;16.55;100.00;101950.50;7375680;19;20506;-51
2023/10/02 07:28:53;;;;;;;23.07;9.33;;;;;;;16.56;100.00;101954.91;7397042;19;20456;-50
2023/10/02 07:31:24;;;;;;;29.87;12.00;;;;;;;16.62;100.00;101962.06;7373105;19;20510;-54
2023/10/02 07:33:55;;;;;;;41.03;17.37;;;;;;;16.67;100.00;101966.59;7373816;19;20443;-52
2023/10/02 07:36:26;;;;;;;20.07;9.07;;;;;;;16.69;100.00;101982.28;7393333;19;20403;-54
2023/10/02 07:39:00;;;;;;;32.07;14.60;;;;;;;16.74;100.00;101988.53;7375667;19;20459;-52
2023/10/02 07:41:31;;;;;;;18.23;8.40;;;;;;;16.77;100.00;101988.63;7395644;19;20436;-54
2023/10/02 07:44:10;;;;;;;22.03;10.00;;;;;;;16.76;100.00;101997.28;7373297;19;20400;-54
2023/10/02 07:46:40;;;;;;;56.67;23.20;;;;;;;16.79;100.00;102005.25;7394337;19;20411;-49
2023/10/02 07:49:10;;;;;;;29.03;12.90;;;;;;;16.82;100.00;102012.28;7372757;19;20411;-49
2023/10/02 07:51:39;;;;;;;22.80;10.77;;;;;;;16.88;100.00;102007.28;7397658;19;20403;-51
2023/10/02 07:54:13;;;;;;;32.47;12.77;;;;;;;16.87;100.00;102001.19;7372875;19;20395;-52
2023/10/02 07:56:47;;;;;;;41.73;17.40;;;;;;;16.92;100.00;102014.38;7395050;19;20988;-55
2023/10/02 07:59:18;;;;;;;21.47;10.57;;;;;;;17.01;100.00;102024.22;7368699;19;20479;-53
2023/10/02 08:01:51;;;;;;;24.27;12.37;;;;;;;17.10;100.00;102022.00;7398298;19;20815;-52
2023/10/02 08:04:44;;;;;;;35.03;16.30;;;;;;;17.12;100.00;102032.47;7372028;19;20399;-50
2023/10/02 08:07:11;;;;;;;35.53;14.00;;;;;;;17.15;100.00;102024.75;7394999;19;20469;-49
2023/10/02 08:09:52;;;;;;;22.00;9.03;;;;;;;17.21;100.00;102031.91;7372587;19;20403;-52
2023/10/02 08:12:34;;;;;;;33.87;14.10;;;;;;;17.20;100.00;102030.13;7395268;19;20420;-50
2023/10/02 08:15:26;;;;;;;54.67;22.40;;;;;;;17.18;100.00;102032.66;7369861;19;20423;-49
2023/10/02 08:18:03;;;;;;;23.30;9.70;;;;;;;17.22;100.00;102045.00;7398792;19;20395;-50
2023/10/02 08:20:37;;;;;;;39.73;17.90;;;;;;;17.32;100.00;102040.13;7370275;19;20430;-52
2023/10/02 08:23:21;;;;;;;41.27;18.70;;;;;;;17.41;100.00;102043.03;7396919;19;20790;-52
2023/10/02 08:26:06;;;;;;;23.90;10.40;;;;;;;17.56;100.00;102045.25;7373146;19;20419;-55
2023/10/02 08:28:38;;;;;;;33.23;13.23;;;;;;;17.64;100.00;102041.19;7394988;19;20454;-53
2023/10/02 08:31:13;;;;;;;22.33;9.20;;;;;;;17.64;100.00;102048.13;7372248;19;20434;-50
2023/10/02 08:33:43;;;;;;;23.17;10.60;;;;;;;17.64;100.00;102043.78;7394429;19;20435;-53
2023/10/02 08:36:30;;;;;;;24.97;9.57;;;;;;;17.70;100.00;102048.34;7374225;19;20438;-53
2023/10/02 08:39:00;;;;;;;29.40;11.73;;;;;;;17.75;100.00;102041.50;7374735;19;20494;-52
2023/10/02 08:41:51;;;;;;;55.13;21.10;;;;;;;17.75;100.00;102058.91;7394551;19;20411;-54
2023/10/02 08:44:22;;;;;;;32.13;12.93;;;;;;;17.74;100.00;102060.63;7370314;19;20408;-51
2023/10/02 08:46:56;;;;;;;23.37;10.93;;;;;;;17.73;100.00;102071.03;7395956;19;20491;-51
2023/10/02 08:49:30;;;;;;;37.73;17.43;;;;;;;17.76;100.00;102073.75;7370354;19;20994;-52
2023/10/02 08:52:03;;;;;;;36.50;15.40;;;;;;;17.77;100.00;102065.97;7393666;19;20962;-49
2023/10/02 08:54:33;;;;;;;22.97;10.27;;;;;;;17.84;100.00;102067.03;7366517;19;20405;-52
2023/10/02 08:57:10;;;;;;;27.13;12.50;;;;;;;17.90;100.00;102066.38;7389769;19;20395;-54
2023/10/02 08:59:42;;;;;;;24.67;9.60;;;;;;;17.97;100.00;102072.66;7368246;19;20406;-54
2023/10/02 09:02:14;;;;;;;23.60;11.73;;;;;;;18.11;100.00;102076.66;7388592;19;20954;-53
2023/10/02 09:05:09;;;;;;;21.63;9.70;;;;;;;18.15;100.00;102068.03;7364745;19;20406;-56
2023/10/02 09:08:00;;;;;;;31.73;14.83;;;;;;;18.17;100.00;102069.00;7386434;19;20400;-51
2023/10/02 09:10:35;;;;;;;25.10;10.80;;;;;;;18.31;100.00;102068.53;7366985;19;20403;-49
2023/10/02 09:13:19;;;;;;;41.47;17.50;;;;;;;18.34;100.00;102068.63;7390013;19;20935;-49
2023/10/02 09:15:53;;;;;;;30.03;11.53;;;;;;;18.39;100.00;102064.41;7365695;19;20870;-48
2023/10/02 09:19:07;;;;;;;20.63;10.80;;;;;;;18.46;100.00;102066.38;7389470;19;20400;-53
2023/10/02 09:21:31;;;;;;;26.63;10.43;;;;;;;18.53;100.00;102064.84;7367366;19;20434;-52
2023/10/02 09:24:04;;;;;;;28.87;12.87;;;;;;;18.52;100.00;102062.16;7368907;19;20395;-51
2023/10/02 09:26:38;;;;;;;25.30;12.40;;;;;;;18.54;100.00;102057.88;7389630;19;20376;-51
2023/10/02 09:29:12;;;;;;;23.33;10.00;;;;;;;18.52;100.00;102059.56;7367361;19;20431;-51
2023/10/02 09:31:42;;;;;;;20.93;10.73;;;;;;;18.54;100.00;102058.75;7389300;19;20414;-54
2023/10/02 09:34:16;;;;;;;23.60;10.43;;;;;;;18.60;100.00;102044.97;7369450;19;20392;-51
2023/10/02 09:37:11;;;;;;;28.73;12.50;;;;;;;18.65;100.00;102058.19;7390372;19;20416;-53
2023/10/02 09:40:03;;;;;;;24.00;10.83;;;;;;;18.82;100.00;102056.94;7367326;19;20406;-52
2023/10/02 09:42:36;;;;;;;19.03;8.90;;;;;;;18.91;100.00;102056.31;7388464;19;20399;-51
2023/10/02 09:45:11;;;;;;;26.37;9.97;;;;;;;19.00;100.00;102056.56;7367306;19;20441;-50
2023/10/02 09:47:42;;;;;;;23.27;10.80;;;;;;;19.02;100.00;102053.97;7390091;19;20402;-51
2023/10/02 09:50:32;;;;;;;24.10;9.43;;;;;;;19.02;100.00;102060.16;7366602;19;20429;-53
2023/10/02 09:53:08;;;;;;;28.40;12.27;;;;;;;19.03;100.00;102059.28;7389571;19;20392;-52
2023/10/02 09:55:49;;;;;;;18.33;8.73;;;;;;;19.20;100.00;102048.41;7367277;19;20402;-51
2023/10/02 09:58:29;;;;;;;24.50;10.00;;;;;;;19.29;100.00;102040.78;7389418;19;20399;-50
2023/10/02 10:04:08;;;;;;;26.07;9.93;;;;;;;19.41;100.00;102031.50;7371918;19;20470;-52
2023/10/02 10:06:48;;;;;;;31.83;10.30;;;;;;;19.43;100.00;102029.78;7393352;19;20399;-54
2023/10/02 10:09:25;;;;;;;23.40;10.67;;;;;;;19.56;100.00;102010.06;7376982;19;20413;-55
2023/10/02 10:14:40;;;;;;;23.47;11.47;;;;;;;19.77;100.00;102014.91;7373655;19;20401;-54
2023/10/02 10:17:52;;;;;;;30.93;15.40;;;;;;;19.75;100.00;101989.56;7398671;19;20435;-52
2023/10/02 10:20:30;;;;;;;22.70;9.57;;;;;;;19.89;100.00;102005.59;7375178;19;20436;-53
2023/10/02 10:23:02;;;;;;;28.03;10.90;;;;;;;19.86;100.00;101995.94;7398948;19;20764;-51
2023/10/02 10:25:43;;;;;;;23.17;9.53;;;;;;;19.95;100.00;101992.63;7376578;19;20431;-54
2023/10/02 10:28:28;;;;;;;22.60;10.17;;;;;;;19.86;100.00;101976.69;7397960;19;21232;-51
2023/10/02 10:31:08;;;;;;;34.97;16.03;;;;;;;19.88;100.00;101960.16;7376675;19;20418;-52
2023/10/02 10:33:43;;;;;;;34.57;16.20;;;;;;;20.06;100.00;101941.38;7396924;19;20412;-49
2023/10/02 10:36:38;;;;;;;30.97;12.00;;;;;;;20.07;100.00;101931.78;7372859;19;20970;-55
2023/10/02 10:39:35;;;;;;;30.07;12.67;;;;;;;20.17;100.00;101927.63;7376395;19;20416;-51
2023/10/02 10:42:05;;;;;;;33.00;12.80;;;;;;;20.09;100.00;101912.63;7396086;19;20845;-48
2023/10/02 10:44:38;;;;;;;24.93;10.87;;;;;;;20.16;100.00;101934.63;7375045;19;20947;-53
2023/10/02 10:47:06;;;;;;;19.30;9.63;;;;;;;20.16;100.00;101915.38;7399850;19;20400;-52
2023/10/02 10:50:11;;;;;;;20.57;9.60;;;;;;;20.27;100.00;101926.97;7374597;19;20410;-51
2023/10/02 10:52:44;;;;;;;34.00;14.33;;;;;;;20.33;100.00;101894.75;7397911;19;20411;-52
2023/10/02 10:55:34;;;;;;;32.00;13.00;;;;;;;20.43;100.00;101885.31;7374409;19;20422;-53
2023/10/02 10:58:04;;;;;;;29.23;12.30;;;;;;;20.55;100.00;101889.94;7399332;19;20411;-52
2023/10/02 11:00:41;;;;;;;23.00;9.30;;;;;;;20.56;100.00;101868.09;7375081;19;20497;-53
2023/10/02 11:03:14;;;;;;;26.73;11.90;;;;;;;20.73;100.00;101871.00;7399676;19;20764;-53
2023/10/02 11:05:48;;;;;;;18.60;9.10;;;;;;;20.84;100.00;101865.94;7372323;19;20500;-52
2023/10/02 11:08:28;;;;;;;27.97;11.67;;;;;;;20.80;100.00;101851.03;7397750;19;20400;-51
2023/10/02 11:11:18;;;;;;;19.90;8.57;;;;;;;20.93;100.00;101860.00;7376046;19;20451;-50
2023/10/02 11:13:59;;;;;;;27.50;11.63;;;;;;;20.86;100.00;101864.28;7378514;19;21117;-51
2023/10/02 11:16:31;;;;;;;22.53;10.33;;;;;;;20.68;100.00;101864.81;7399821;19;20431;-52
2023/10/02 11:19:25;;;;;;;28.20;12.53;;;;;;;20.59;100.00;101861.16;7375465;19;20956;-55
2023/10/02 11:22:22;;;;;;;19.77;8.40;;;;;;;20.68;100.00;101859.56;7396069;19;20408;-50
2023/10/02 11:25:18;;;;;;;20.50;8.83;;;;;;;20.91;100.00;101854.72;7372226;19;20878;-52
2023/10/02 11:27:57;;;;;;;22.77;9.40;;;;;;;21.07;100.00;101857.59;7399541;19;20423;-51
2023/10/02 11:30:33;;;;;;;27.67;12.20;;;;;;;21.03;100.00;101838.31;7373565;19;20459;-50
2023/10/02 11:33:05;;;;;;;19.03;8.00;;;;;;;21.27;100.00;101845.66;7397154;19;20411;-52
2023/10/02 11:35:41;;;;;;;22.43;9.10;;;;;;;21.18;100.00;101811.44;7373388;19;20431;-50
2023/10/02 11:38:18;;;;;;;26.07;11.53;;;;;;;21.15;100.00;101799.16;7396265;19;20747;-53
2023/10/02 11:40:47;;;;;;;23.87;10.23;;;;;;;21.04;100.00;101806.84;7372642;19;20431;-51
2023/10/02 11:43:17;;;;;;;22.60;9.70;;;;;;;21.00;100.00;101805.06;7398270;19;20781;-51
2023/10/02 11:45:47;;;;;;;21.50;8.77;;;;;;;20.93;100.00;101818.03;7371906;19;20431;-54
2023/10/02 11:48:17;;;;;;;23.23;8.60;;;;;;;21.06;100.00;101819.13;7399085;19;20428;-55
2023/10/02 11:50:50;;;;;;;24.30;7.80;;;;;;;21.14;100.00;101807.00;7373106;19;20963;-55
2023/10/02 11:53:22;;;;;;;19.80;8.07;;;;;;;21.20;100.00;101811.44;7397591;19;20392;-52
2023/10/02 11:55:52;;;;;;;23.20;9.47;;;;;;;21.15;100.00;101796.53;7373478;19;20986;-53
2023/10/02 11:58:21;;;;;;;18.20;7.60;;;;;;;21.17;100.00;101813.16;7397560;19;20408;-55
2023/10/02 12:00:51;;;;;;;19.77;8.90;;;;;;;21.20;100.00;101803.56;7373542;19;20795;-49
2023/10/02 12:03:21;;;;;;;23.47;10.43;;;;;;;21.28;100.00;101794.06;7395865;19;20403;-56
2023/10/02 12:05:51;;;;;;;24.73;10.20;;;;;;;21.25;100.00;101784.41;7371332;19;20427;-53
2023/10/02 12:08:25;;;;;;;17.70;7.80;;;;;;;21.41;100.00;101795.09;7396071;19;20770;-49
2023/10/02 12:10:56;;;;;;;22.20;8.87;;;;;;;21.39;100.00;101770.59;7372607;19;20442;-53
2023/10/02 12:13:28;;;;;;;21.23;8.43;;;;;;;21.39;100.00;101760.09;7395727;19;20427;-51
2023/10/02 12:15:58;;;;;;;19.20;9.17;;;;;;;21.27;100.00;101760.81;7373176;19;20455;-53
2023/10/02 12:18:28;;;;;;;21.90;8.00;;;;;;;21.28;100.00;101766.06;7396209;19;20415;-52
2023/10/02 12:20:59;;;;;;;20.33;8.83;;;;;;;21.29;100.00;101766.97;7373529;19;20415;-51
2023/10/02 12:23:35;;;;;;;24.83;9.77;;;;;;;21.26;100.00;101795.78;7393890;19;20415;-54
2023/10/02 12:26:05;;;;;;;24.03;10.93;;;;;;;21.17;100.00;101809.63;7371623;19;20465;-50